createdAt,value
2024-02-29T00:00:36.149Z,49.68
2024-02-29T00:03:30.098Z,49.77
2024-02-29T00:06:03.762Z,49.55
2024-02-29T00:08:37.490Z,49.46
2024-02-29T00:11:11.408Z,49.48
2024-02-29T00:13:45.022Z,49.72
2024-02-29T00:16:19.194Z,49.55
2024-02-29T00:18:53.062Z,49.55
2024-02-29T00:21:26.648Z,49.62
2024-02-29T00:24:00.233Z,49.91
2024-02-29T00:26:34.716Z,49.94
2024-02-29T00:29:09.203Z,49.80
2024-02-29T00:31:46.821Z,49.73
2024-02-29T00:34:20.725Z,49.70
2024-02-29T00:36:54.305Z,49.90
2024-02-29T00:39:28.186Z,50.01
2024-02-29T00:42:01.898Z,49.79
2024-02-29T00:44:35.937Z,49.90
2024-02-29T00:47:10.370Z,49.74
2024-02-29T00:49:44.108Z,49.74
2024-02-29T00:52:18.237Z,49.71
2024-02-29T00:54:52.170Z,49.78
2024-02-29T00:57:26.245Z,49.96
2024-02-29T00:59:59.903Z,49.93
2024-02-29T01:02:33.753Z,49.95
2024-02-29T01:05:08.745Z,49.93
2024-02-29T01:07:42.715Z,49.82
2024-02-29T01:10:17.569Z,49.82
2024-02-29T01:12:51.399Z,49.95
2024-02-29T01:15:25.483Z,50.14
2024-02-29T01:17:59.372Z,50.11
2024-02-29T01:20:33.243Z,50.25
2024-02-29T01:23:07.199Z,50.24
2024-02-29T01:25:41.481Z,50.11
2024-02-29T01:28:15.299Z,49.91
2024-02-29T01:30:48.852Z,49.93
2024-02-29T01:33:22.568Z,49.97
2024-02-29T01:35:56.571Z,49.93
2024-02-29T01:38:30.226Z,50.03
2024-02-29T01:41:04.110Z,50.28
2024-02-29T01:43:37.998Z,50.67
2024-02-29T01:46:17.176Z,50.68
2024-02-29T01:48:51.389Z,50.82
2024-02-29T01:51:25.165Z,51.05
2024-02-29T01:53:58.804Z,51.20
2024-02-29T01:56:32.522Z,50.89
2024-02-29T01:59:06.878Z,51.30
2024-02-29T02:01:40.748Z,51.72
2024-02-29T02:04:14.597Z,51.52
2024-02-29T02:06:48.584Z,51.81
2024-02-29T02:09:22.697Z,51.81
2024-02-29T02:11:57.228Z,51.78
2024-02-29T02:14:31.334Z,52.05
2024-02-29T02:17:05.009Z,52.02
2024-02-29T02:19:40.084Z,51.97
2024-02-29T02:22:14.178Z,52.15
2024-02-29T02:24:47.963Z,52.21
2024-02-29T02:27:22.442Z,52.46
2024-02-29T02:29:56.051Z,52.49
2024-02-29T02:32:30.356Z,52.39
2024-02-29T02:35:05.689Z,52.61
2024-02-29T02:37:39.919Z,52.76
2024-02-29T02:40:15.115Z,52.75
2024-02-29T02:42:49.252Z,52.84
2024-02-29T02:45:22.954Z,52.85
2024-02-29T02:47:56.940Z,52.94
2024-02-29T02:50:31.172Z,53.15
2024-02-29T02:53:09.002Z,53.21
2024-02-29T02:55:43.197Z,53.46
2024-02-29T02:58:17.520Z,53.05
2024-02-29T03:00:51.244Z,53.28
2024-02-29T03:03:25.101Z,53.49
2024-02-29T03:05:59.115Z,53.52
2024-02-29T03:08:32.997Z,53.53
2024-02-29T03:11:06.657Z,53.41
2024-02-29T03:13:41.377Z,53.61
2024-02-29T03:16:15.508Z,53.57
2024-02-29T03:18:49.878Z,53.16
2024-02-29T03:21:23.908Z,53.30
2024-02-29T03:23:58.052Z,53.99
2024-02-29T03:26:31.632Z,53.85
2024-02-29T03:29:05.926Z,53.66
2024-02-29T03:31:39.621Z,54.15
2024-02-29T03:34:13.475Z,53.86
2024-02-29T03:36:47.670Z,53.57
2024-02-29T03:39:21.676Z,53.83
2024-02-29T03:41:55.634Z,53.55
2024-02-29T03:44:29.435Z,52.85
2024-02-29T03:47:03.475Z,52.86
2024-02-29T03:49:37.226Z,53.05
2024-02-29T03:52:12.138Z,53.14
2024-02-29T03:54:46.692Z,53.24
2024-02-29T03:57:20.190Z,52.90
2024-02-29T03:59:54.158Z,53.15
2024-02-29T04:02:29.680Z,52.87
2024-02-29T04:05:03.280Z,53.07
2024-02-29T04:07:38.217Z,52.67
2024-02-29T04:10:13.809Z,52.02
2024-02-29T04:12:47.327Z,52.02
2024-02-29T04:15:21.847Z,51.96
2024-02-29T04:17:55.424Z,51.79
2024-02-29T04:20:29.434Z,51.60
2024-02-29T04:23:03.436Z,51.20
2024-02-29T04:25:37.342Z,51.08
2024-02-29T04:28:11.309Z,50.56
2024-02-29T04:30:46.144Z,50.09
2024-02-29T04:33:20.555Z,50.08
2024-02-29T04:35:54.283Z,49.94
2024-02-29T04:38:28.160Z,49.52
2024-02-29T04:41:02.678Z,49.19
2024-02-29T04:43:36.713Z,48.77
2024-02-29T04:46:11.254Z,48.34
2024-02-29T04:48:45.258Z,48.04
2024-02-29T04:51:19.170Z,47.78
2024-02-29T04:53:53.888Z,47.58
2024-02-29T04:56:28.221Z,47.24
2024-02-29T04:59:02.123Z,47.06
2024-02-29T05:01:35.953Z,46.69
2024-02-29T05:04:10.493Z,46.68
2024-02-29T05:06:44.350Z,46.52
2024-02-29T05:09:18.731Z,45.90
2024-02-29T05:11:52.588Z,45.59
2024-02-29T05:14:27.032Z,45.17
2024-02-29T05:17:01.423Z,45.01
2024-02-29T05:19:36.237Z,45.19
2024-02-29T05:22:10.668Z,44.43
2024-02-29T05:24:44.434Z,43.94
2024-02-29T05:27:18.185Z,43.75
2024-02-29T05:29:51.946Z,43.46
2024-02-29T05:32:26.266Z,43.21
2024-02-29T05:35:00.783Z,43.02
2024-02-29T05:37:34.592Z,42.95
2024-02-29T05:40:12.197Z,42.30
2024-02-29T05:42:45.794Z,42.27
2024-02-29T05:45:19.831Z,42.29
2024-02-29T05:47:54.548Z,41.47
2024-02-29T05:50:31.229Z,41.38
2024-02-29T05:53:07.535Z,40.78
2024-02-29T05:55:41.520Z,40.83
2024-02-29T05:58:15.654Z,40.31
2024-02-29T06:00:49.581Z,40.18
2024-02-29T06:03:23.762Z,39.71
2024-02-29T06:05:57.386Z,38.79
2024-02-29T06:08:31.572Z,36.31
2024-02-29T06:11:05.854Z,32.82
2024-02-29T06:13:41.121Z,28.50
2024-02-29T06:16:15.799Z,25.18
2024-02-29T06:18:50.011Z,22.14
2024-02-29T06:21:23.768Z,19.86
2024-02-29T06:23:57.380Z,18.09
2024-02-29T06:26:30.992Z,15.80
2024-02-29T06:29:04.805Z,15.23
2024-02-29T06:31:38.878Z,14.44
2024-02-29T06:34:12.676Z,13.47
2024-02-29T06:36:46.290Z,12.21
2024-02-29T06:39:20.223Z,11.10
2024-02-29T06:41:54.517Z,11.13
2024-02-29T06:44:28.094Z,10.55
2024-02-29T06:47:01.779Z,9.38
2024-02-29T06:49:35.747Z,9.10
2024-02-29T06:52:12.144Z,9.54
2024-02-29T06:54:46.989Z,9.31
2024-02-29T06:57:21.321Z,8.91
2024-02-29T06:59:55.737Z,8.28
2024-02-29T07:02:30.251Z,7.56
2024-02-29T07:05:04.360Z,7.91
2024-02-29T07:07:38.263Z,7.50
2024-02-29T07:10:14.264Z,7.48
2024-02-29T07:12:48.433Z,7.27
2024-02-29T07:15:22.732Z,5.90
2024-02-29T07:17:56.587Z,5.66
2024-02-29T07:20:30.865Z,6.76
2024-02-29T07:23:05.407Z,6.52
2024-02-29T07:25:39.193Z,7.09
2024-02-29T07:28:13.628Z,6.82
2024-02-29T07:30:47.640Z,6.68
2024-02-29T07:33:21.430Z,6.31
2024-02-29T07:35:56.181Z,6.45
2024-02-29T07:38:30.209Z,7.00
2024-02-29T07:41:04.690Z,6.69
2024-02-29T07:43:38.493Z,6.18
2024-02-29T07:46:12.202Z,5.90
2024-02-29T07:48:46.534Z,6.36
2024-02-29T07:51:23.232Z,6.20
2024-02-29T07:53:57.162Z,5.93
2024-02-29T07:56:30.869Z,6.03
2024-02-29T07:59:04.685Z,5.92
2024-02-29T08:01:38.458Z,5.79
2024-02-29T08:04:13.247Z,5.65
2024-02-29T08:06:47.539Z,6.09
2024-02-29T08:09:21.146Z,6.91
2024-02-29T08:11:56.049Z,8.25
2024-02-29T08:14:28.827Z,9.65
2024-02-29T08:17:02.861Z,11.35
2024-02-29T08:19:36.367Z,12.21
2024-02-29T08:22:10.401Z,13.71
2024-02-29T08:24:44.464Z,14.86
2024-02-29T08:27:18.439Z,16.18
2024-02-29T08:29:52.690Z,17.40
2024-02-29T08:32:26.642Z,18.56
2024-02-29T08:35:01.322Z,19.81
2024-02-29T08:37:35.151Z,20.88
2024-02-29T08:40:10.658Z,21.53
2024-02-29T08:42:44.636Z,21.83
2024-02-29T08:45:22.052Z,22.26
2024-02-29T08:47:57.138Z,22.87
2024-02-29T08:50:30.743Z,23.41
2024-02-29T08:53:04.606Z,23.95
2024-02-29T08:55:39.582Z,24.31
2024-02-29T08:58:13.673Z,25.13
2024-02-29T09:00:47.573Z,25.67
2024-02-29T09:03:21.398Z,25.94
2024-02-29T09:05:55.125Z,26.28
2024-02-29T09:08:28.794Z,26.22
2024-02-29T09:11:02.625Z,26.28
2024-02-29T09:13:36.840Z,27.10
2024-02-29T09:16:11.270Z,27.10
2024-02-29T09:18:45.202Z,27.39
2024-02-29T09:21:19.040Z,27.65
2024-02-29T09:23:52.745Z,27.96
2024-02-29T09:26:27.255Z,28.22
2024-02-29T09:29:01.245Z,28.78
2024-02-29T09:31:35.032Z,28.79
2024-02-29T09:34:09.129Z,28.59
2024-02-29T09:36:43.856Z,28.53
2024-02-29T09:39:17.578Z,28.41
2024-02-29T09:42:08.640Z,28.59
2024-02-29T09:44:45.511Z,28.66
2024-02-29T09:47:20.982Z,28.83
2024-02-29T09:49:59.581Z,28.83
2024-02-29T09:52:40.347Z,28.72
2024-02-29T09:55:18.695Z,28.80
2024-02-29T09:57:52.961Z,28.47
2024-02-29T10:00:27.406Z,28.18
2024-02-29T10:03:01.828Z,28.62
2024-02-29T10:05:36.162Z,29.11
2024-02-29T10:08:11.129Z,29.28
2024-02-29T10:10:45.155Z,29.53
2024-02-29T10:13:18.836Z,29.20
2024-02-29T10:15:54.473Z,29.04
2024-02-29T10:18:28.413Z,28.98
2024-02-29T10:21:02.248Z,29.16
2024-02-29T10:23:36.174Z,29.66
2024-02-29T10:26:10.705Z,29.27
2024-02-29T10:28:44.641Z,29.66
2024-02-29T10:31:22.389Z,29.76
2024-02-29T10:33:56.112Z,29.72
2024-02-29T10:36:30.226Z,29.74
2024-02-29T10:39:03.828Z,29.43
2024-02-29T10:41:38.113Z,29.27
2024-02-29T10:44:12.490Z,29.42
2024-02-29T10:46:46.646Z,29.40
2024-02-29T10:49:30.376Z,29.34
2024-02-29T10:52:10.786Z,29.02
2024-02-29T10:54:52.584Z,29.48
2024-02-29T10:57:28.427Z,29.59
2024-02-29T11:00:06.775Z,29.06
2024-02-29T11:02:42.085Z,29.02
2024-02-29T11:05:16.246Z,28.85
2024-02-29T11:07:50.088Z,28.98
2024-02-29T11:10:24.559Z,29.23
2024-02-29T11:13:07.553Z,29.01
2024-02-29T11:15:46.071Z,29.73
2024-02-29T11:18:26.584Z,29.24
2024-02-29T11:21:10.465Z,28.89
2024-02-29T11:23:44.604Z,29.20
2024-02-29T11:26:18.869Z,29.06
2024-02-29T11:28:53.420Z,29.24
2024-02-29T11:31:27.372Z,29.27
2024-02-29T11:34:01.780Z,29.12
2024-02-29T11:36:37.713Z,29.14
2024-02-29T11:39:12.695Z,29.26
2024-02-29T11:41:48.200Z,29.14
2024-02-29T11:44:21.824Z,29.35
2024-02-29T11:46:55.782Z,29.44
2024-02-29T11:49:29.806Z,29.69
2024-02-29T11:52:03.828Z,29.76
2024-02-29T11:54:38.322Z,29.84
2024-02-29T11:57:12.855Z,29.79
2024-02-29T11:59:46.952Z,29.66
2024-02-29T12:02:21.733Z,29.52
2024-02-29T12:04:56.177Z,29.30
2024-02-29T12:07:30.641Z,29.63
2024-02-29T12:10:05.753Z,29.36
2024-02-29T12:12:40.287Z,29.35
2024-02-29T12:15:14.745Z,29.40
2024-02-29T12:17:51.599Z,29.18
2024-02-29T12:20:27.482Z,29.22
2024-02-29T12:23:03.590Z,29.49
2024-02-29T12:25:38.077Z,29.50
2024-02-29T12:28:12.850Z,29.57
2024-02-29T12:30:48.096Z,29.39
2024-02-29T12:33:25.154Z,29.63
2024-02-29T12:36:00.810Z,29.54
2024-02-29T12:38:35.941Z,29.51
2024-02-29T12:41:10.808Z,29.39
2024-02-29T12:43:51.397Z,29.81
2024-02-29T12:46:25.379Z,29.57
2024-02-29T12:49:00.294Z,29.43
2024-02-29T12:51:34.512Z,29.45
2024-02-29T12:54:09.380Z,29.43
2024-02-29T12:56:43.612Z,29.85
2024-02-29T12:59:17.626Z,29.77
2024-02-29T13:01:51.523Z,29.87
2024-02-29T13:04:26.256Z,29.90
2024-02-29T13:07:00.821Z,30.09
2024-02-29T13:09:34.657Z,30.11
2024-02-29T13:12:09.327Z,29.74
2024-02-29T13:14:44.657Z,29.98
2024-02-29T13:17:18.514Z,29.99
2024-02-29T13:19:52.952Z,30.03
2024-02-29T13:22:26.965Z,29.95
2024-02-29T13:25:00.967Z,29.69
2024-02-29T13:27:36.278Z,30.23
2024-02-29T13:30:12.098Z,30.18
2024-02-29T13:32:46.494Z,30.15
2024-02-29T13:35:20.284Z,30.09
2024-02-29T13:37:57.086Z,30.15
2024-02-29T13:40:31.140Z,30.56
2024-02-29T13:43:04.883Z,30.68
2024-02-29T13:45:40.697Z,30.83
2024-02-29T13:48:14.931Z,30.56
2024-02-29T13:50:48.703Z,30.95
2024-02-29T13:53:22.563Z,31.08
2024-02-29T13:55:56.463Z,31.41
2024-02-29T13:58:30.107Z,31.76
2024-02-29T14:01:06.695Z,31.55
2024-02-29T14:03:42.530Z,31.64
2024-02-29T14:06:16.969Z,31.50
2024-02-29T14:08:50.899Z,31.81
2024-02-29T14:11:24.568Z,32.03
2024-02-29T14:13:58.343Z,32.07
2024-02-29T14:16:32.611Z,32.45
2024-02-29T14:19:06.674Z,32.50
2024-02-29T14:21:40.437Z,32.93
2024-02-29T14:24:14.316Z,32.78
2024-02-29T14:26:48.610Z,32.92
2024-02-29T14:29:22.720Z,32.89
2024-02-29T14:31:56.828Z,33.27
2024-02-29T14:34:30.778Z,33.61
2024-02-29T14:37:04.555Z,33.67
2024-02-29T14:39:38.330Z,33.84
2024-02-29T14:42:12.262Z,33.94
2024-02-29T14:44:46.076Z,33.99
2024-02-29T14:47:20.172Z,34.59
2024-02-29T14:49:53.815Z,34.51
2024-02-29T14:52:28.727Z,34.86
2024-02-29T14:55:02.663Z,35.10
2024-02-29T14:57:36.210Z,34.98
2024-02-29T15:00:16.244Z,34.99
2024-02-29T15:02:50.321Z,35.49
2024-02-29T15:05:24.381Z,35.80
2024-02-29T15:07:59.192Z,35.98
2024-02-29T15:10:34.139Z,36.61
2024-02-29T15:13:08.152Z,36.42
2024-02-29T15:15:42.182Z,36.73
2024-02-29T15:18:15.708Z,37.03
2024-02-29T15:20:49.371Z,37.20
2024-02-29T15:23:23.099Z,36.74
2024-02-29T15:25:56.991Z,36.80
2024-02-29T15:28:33.634Z,36.82
2024-02-29T15:31:08.611Z,37.29
2024-02-29T15:33:42.574Z,37.56
2024-02-29T15:36:17.110Z,37.84
2024-02-29T15:38:51.091Z,37.91
2024-02-29T15:41:26.066Z,37.99
2024-02-29T15:44:00.450Z,38.18
2024-02-29T15:46:34.360Z,37.68
2024-02-29T15:49:08.452Z,37.82
2024-02-29T15:51:42.782Z,38.09
2024-02-29T15:54:16.716Z,38.50
2024-02-29T15:56:51.774Z,38.66
2024-02-29T15:59:25.656Z,38.47
2024-02-29T16:01:59.499Z,39.14
2024-02-29T16:04:33.324Z,39.13
2024-02-29T16:07:07.935Z,39.30
2024-02-29T16:09:42.222Z,39.17
2024-02-29T16:12:17.604Z,39.62
2024-02-29T16:14:53.830Z,39.38
2024-02-29T16:17:28.899Z,39.53
2024-02-29T16:20:02.689Z,39.82
2024-02-29T16:22:42.046Z,39.92
2024-02-29T16:25:16.220Z,40.04
2024-02-29T16:27:51.739Z,39.91
2024-02-29T16:30:25.616Z,40.22
2024-02-29T16:32:59.292Z,40.10
2024-02-29T16:35:33.087Z,40.40
2024-02-29T16:38:08.043Z,40.69
2024-02-29T16:40:44.254Z,41.22
2024-02-29T16:43:22.606Z,41.55
2024-02-29T16:45:56.993Z,41.79
2024-02-29T16:48:31.353Z,41.80
2024-02-29T16:51:05.957Z,41.97
2024-02-29T16:53:40.246Z,41.83
2024-02-29T16:56:15.678Z,42.66
2024-02-29T16:58:49.648Z,42.70
2024-02-29T17:01:24.123Z,42.88
2024-02-29T17:04:00.550Z,42.92
2024-02-29T17:06:35.481Z,43.34
2024-02-29T17:09:09.374Z,43.16
2024-02-29T17:11:43.045Z,43.69
2024-02-29T17:14:17.386Z,44.06
2024-02-29T17:16:52.014Z,43.96
2024-02-29T17:19:26.046Z,44.08
2024-02-29T17:22:00.510Z,44.40
2024-02-29T17:24:34.404Z,44.27
2024-02-29T17:27:08.569Z,45.07
2024-02-29T17:29:43.935Z,44.89
2024-02-29T17:32:17.825Z,45.05
2024-02-29T17:34:51.513Z,44.86
2024-02-29T17:37:27.930Z,45.18
2024-02-29T17:40:03.569Z,44.79
2024-02-29T17:42:37.545Z,44.85
2024-02-29T17:45:13.142Z,45.42
2024-02-29T17:47:47.396Z,45.39
2024-02-29T17:50:21.991Z,45.40
2024-02-29T17:52:56.464Z,45.60
2024-02-29T17:55:30.367Z,45.29
2024-02-29T17:58:04.345Z,45.40
2024-02-29T18:00:38.898Z,45.71
2024-02-29T18:03:13.094Z,45.71
2024-02-29T18:05:47.561Z,46.48
2024-02-29T18:08:21.158Z,45.80
2024-02-29T18:10:54.877Z,45.91
2024-02-29T18:13:31.324Z,46.14
2024-02-29T18:16:05.825Z,46.06
2024-02-29T18:18:39.594Z,45.96
2024-02-29T18:21:13.010Z,45.86
2024-02-29T18:23:46.519Z,45.94
2024-02-29T18:26:22.665Z,46.26
2024-02-29T18:28:56.944Z,46.20
2024-02-29T18:31:30.835Z,46.19
2024-02-29T18:34:04.983Z,46.53
2024-02-29T18:36:42.970Z,46.58
2024-02-29T18:39:16.721Z,46.70
2024-02-29T18:41:50.897Z,46.83
2024-02-29T18:44:25.162Z,47.03
2024-02-29T18:47:01.273Z,46.76
2024-02-29T18:49:35.057Z,46.96
2024-02-29T18:52:10.379Z,46.87
2024-02-29T18:54:47.251Z,47.04
2024-02-29T18:57:20.966Z,47.12
2024-02-29T18:59:54.631Z,47.03
2024-02-29T19:02:28.696Z,47.19
2024-02-29T19:05:02.433Z,47.19
2024-02-29T19:07:36.340Z,47.26
2024-02-29T19:10:14.710Z,47.30
2024-02-29T19:12:49.130Z,47.38
2024-02-29T19:15:24.718Z,47.44
2024-02-29T19:18:02.390Z,47.35
2024-02-29T19:20:36.708Z,47.35
2024-02-29T19:23:10.955Z,47.47
2024-02-29T19:25:44.512Z,47.35
2024-02-29T19:28:18.348Z,47.52
2024-02-29T19:30:54.653Z,47.11
2024-02-29T19:33:28.226Z,47.09
2024-02-29T19:36:02.133Z,46.95
2024-02-29T19:38:36.661Z,47.05
2024-02-29T19:41:11.880Z,47.06
2024-02-29T19:43:45.543Z,47.11
2024-02-29T19:46:19.210Z,47.03
2024-02-29T19:48:54.819Z,46.76
2024-02-29T19:51:28.358Z,46.87
2024-02-29T19:54:01.837Z,46.67
2024-02-29T19:56:35.407Z,46.90
2024-02-29T19:59:08.886Z,46.46
2024-02-29T20:01:43.000Z,46.54
2024-02-29T20:04:18.174Z,46.17
2024-02-29T20:06:54.489Z,46.44
2024-02-29T20:09:28.017Z,46.38
2024-02-29T20:12:03.251Z,46.42
2024-02-29T20:14:36.800Z,46.47
2024-02-29T20:17:10.336Z,46.35
2024-02-29T20:19:44.006Z,46.28
2024-02-29T20:22:17.938Z,46.04
2024-02-29T20:24:52.098Z,46.07
2024-02-29T20:27:27.251Z,46.02
2024-02-29T20:30:01.353Z,45.72
2024-02-29T20:32:35.068Z,45.84
2024-02-29T20:35:09.650Z,45.77
2024-02-29T20:37:43.267Z,45.75
2024-02-29T20:40:18.282Z,45.39
2024-02-29T20:42:52.582Z,45.55
2024-02-29T20:45:26.421Z,45.60
2024-02-29T20:47:59.828Z,45.71
2024-02-29T20:50:34.859Z,45.38
2024-02-29T20:53:08.459Z,45.52
2024-02-29T20:55:42.071Z,45.57
2024-02-29T20:58:16.139Z,45.60
2024-02-29T21:00:50.001Z,45.51
2024-02-29T21:03:28.734Z,45.42
2024-02-29T21:06:04.604Z,45.30
2024-02-29T21:08:39.704Z,45.50
2024-02-29T21:11:13.342Z,45.33
2024-02-29T21:13:47.187Z,45.14
2024-02-29T21:16:20.808Z,45.06
2024-02-29T21:18:54.728Z,45.34
2024-02-29T21:21:30.662Z,45.21
2024-02-29T21:24:04.838Z,45.13
2024-02-29T21:26:40.514Z,44.87
2024-02-29T21:29:14.384Z,44.69
2024-02-29T21:31:49.247Z,44.33
2024-02-29T21:34:23.712Z,44.32
2024-02-29T21:36:58.393Z,44.58
2024-02-29T21:39:36.813Z,44.45
2024-02-29T21:42:17.498Z,44.32
2024-02-29T21:44:52.231Z,44.14
2024-02-29T21:47:25.983Z,43.87
2024-02-29T21:49:59.644Z,43.77
2024-02-29T21:52:33.875Z,44.06
2024-02-29T21:55:08.960Z,43.91
2024-02-29T21:57:43.101Z,43.97
2024-02-29T22:00:18.329Z,43.87
2024-02-29T22:02:51.955Z,43.74
2024-02-29T22:05:26.213Z,44.19
2024-02-29T22:08:00.356Z,43.92
2024-02-29T22:10:37.117Z,43.97
2024-02-29T22:13:11.794Z,44.04
2024-02-29T22:15:45.832Z,43.60
2024-02-29T22:18:20.708Z,43.96
2024-02-29T22:20:57.637Z,43.98
2024-02-29T22:23:31.918Z,44.16
2024-02-29T22:26:06.090Z,43.98
2024-02-29T22:28:41.164Z,43.77
2024-02-29T22:31:21.866Z,43.76
2024-02-29T22:33:55.757Z,43.28
2024-02-29T22:36:31.993Z,43.49
2024-02-29T22:39:07.008Z,43.52
2024-02-29T22:41:52.785Z,43.34
2024-02-29T22:44:31.952Z,43.61
2024-02-29T22:47:06.310Z,43.64
2024-02-29T22:49:40.684Z,43.58
2024-02-29T22:52:14.307Z,43.89
2024-02-29T22:54:48.416Z,43.94
2024-02-29T22:57:21.896Z,43.84
2024-02-29T22:59:56.228Z,43.84
2024-02-29T23:02:30.530Z,44.16
2024-02-29T23:05:06.720Z,44.33
2024-02-29T23:07:41.609Z,43.66
2024-02-29T23:10:16.910Z,44.30
2024-02-29T23:12:51.434Z,43.83
2024-02-29T23:15:25.929Z,44.14
2024-02-29T23:17:59.856Z,44.39
2024-02-29T23:20:35.112Z,44.28
2024-02-29T23:23:08.919Z,44.11
2024-02-29T23:25:42.713Z,43.94
2024-02-29T23:28:16.508Z,44.80
2024-02-29T23:30:50.418Z,43.83
2024-02-29T23:33:24.162Z,44.22
2024-02-29T23:35:57.987Z,44.08
2024-02-29T23:38:31.509Z,44.07
2024-02-29T23:41:05.392Z,43.98
2024-02-29T23:43:40.113Z,43.79
2024-02-29T23:46:14.011Z,43.93
2024-02-29T23:48:47.600Z,44.01
2024-02-29T23:51:22.263Z,43.82
2024-02-29T23:53:56.015Z,44.03
2024-02-29T23:56:30.346Z,44.10
2024-02-29T23:59:05.672Z,43.83
